createdAt,value
2022-12-25T00:20:05.356Z,5.25
2022-12-25T00:22:32.206Z,5.30
2022-12-25T00:24:58.915Z,5.29
2022-12-25T00:27:25.546Z,5.32
2022-12-25T00:29:52.358Z,5.32
2022-12-25T00:32:19.016Z,5.32
2022-12-25T00:34:48.043Z,5.33
2022-12-25T00:37:14.749Z,5.33
2022-12-25T00:39:42.462Z,5.30
2022-12-25T00:42:20.212Z,5.26
2022-12-25T00:44:50.989Z,5.24
2022-12-25T00:47:20.706Z,5.24
2022-12-25T00:49:47.737Z,5.19
2022-12-25T00:52:17.488Z,5.14
2022-12-25T00:54:49.500Z,5.12
2022-12-25T00:57:16.119Z,5.11
2022-12-25T00:59:42.855Z,5.08
2022-12-25T01:02:25.271Z,5.04
2022-12-25T01:04:56.466Z,5.01
2022-12-25T01:07:26.569Z,5.01
2022-12-25T01:10:12.253Z,5.03
2022-12-25T01:12:43.344Z,5.00
2022-12-25T01:15:12.898Z,5.05
2022-12-25T01:17:39.868Z,5.12
2022-12-25T01:20:07.991Z,5.13
2022-12-25T01:22:34.972Z,5.19
2022-12-25T01:25:01.925Z,5.19
2022-12-25T01:27:28.739Z,5.22
2022-12-25T01:29:55.772Z,5.19
2022-12-25T01:32:22.535Z,5.21
2022-12-25T01:34:55.518Z,5.22
2022-12-25T01:37:24.979Z,5.30
2022-12-25T01:39:52.204Z,5.27
2022-12-25T01:42:23.778Z,5.27
2022-12-25T01:45:13.638Z,5.26
2022-12-25T01:47:40.478Z,5.32
2022-12-25T01:50:08.454Z,5.32
2022-12-25T01:52:35.688Z,5.34
2022-12-25T01:55:05.247Z,5.35
2022-12-25T01:57:44.599Z,5.33
2022-12-25T02:00:16.323Z,5.29
2022-12-25T02:02:45.346Z,5.34
2022-12-25T02:05:27.086Z,5.27
2022-12-25T02:07:57.971Z,5.11
2022-12-25T02:10:24.628Z,4.99
2022-12-25T02:12:52.537Z,4.92
2022-12-25T02:15:34.771Z,4.93
2022-12-25T02:18:27.132Z,4.97
2022-12-25T02:21:50.829Z,4.97
2022-12-25T02:24:53.413Z,5.11
2022-12-25T02:27:54.849Z,5.16
2022-12-25T02:30:22.236Z,5.20
2022-12-25T02:33:51.015Z,5.21
2022-12-25T02:36:30.858Z,5.15
2022-12-25T02:39:23.389Z,5.14
2022-12-25T02:41:56.810Z,5.15
2022-12-25T02:44:49.816Z,5.10
2022-12-25T02:47:38.268Z,4.95
2022-12-25T02:50:28.267Z,4.96
2022-12-25T02:53:18.332Z,4.88
2022-12-25T02:56:12.515Z,4.92
2022-12-25T02:59:03.530Z,4.95
2022-12-25T03:02:00.520Z,5.00
2022-12-25T03:04:53.717Z,5.01
2022-12-25T03:07:26.165Z,5.08
2022-12-25T03:10:28.335Z,5.11
2022-12-25T03:13:16.154Z,5.11
2022-12-25T03:16:01.907Z,5.13
2022-12-25T03:18:35.649Z,5.07
2022-12-25T03:21:21.556Z,5.20
2022-12-25T03:24:20.398Z,5.29
2022-12-25T03:26:57.066Z,5.29
2022-12-25T03:29:55.582Z,5.36
2022-12-25T03:33:36.686Z,5.39
2022-12-25T03:36:31.553Z,5.40
2022-12-25T03:39:40.580Z,5.39
2022-12-25T03:42:29.538Z,5.37
2022-12-25T03:45:34.095Z,5.37
2022-12-25T03:48:24.250Z,5.38
2022-12-25T03:51:30.659Z,5.40
2022-12-25T03:54:25.686Z,5.38
2022-12-25T03:57:11.071Z,5.41
2022-12-25T03:59:56.518Z,5.42
2022-12-25T04:02:42.020Z,5.39
2022-12-25T04:05:27.849Z,5.37
2022-12-25T04:08:13.136Z,5.35
2022-12-25T04:10:58.518Z,5.32
2022-12-25T04:13:44.078Z,5.29
2022-12-25T04:16:31.125Z,5.22
2022-12-25T04:19:16.447Z,5.21
2022-12-25T04:22:01.868Z,5.20
2022-12-25T04:24:47.344Z,5.18
2022-12-25T04:27:34.530Z,5.18
2022-12-25T04:30:19.874Z,5.18
2022-12-25T04:33:08.736Z,5.14
2022-12-25T04:35:54.136Z,5.08
2022-12-25T04:38:20.908Z,5.03
2022-12-25T04:40:47.813Z,5.07
2022-12-25T04:43:14.512Z,5.07
2022-12-25T04:45:41.287Z,5.03
2022-12-25T04:48:07.977Z,5.01
2022-12-25T04:50:34.686Z,5.03
2022-12-25T04:53:01.389Z,4.98
2022-12-25T04:55:27.978Z,5.03
2022-12-25T04:57:54.717Z,5.03
2022-12-25T05:00:21.401Z,5.06
2022-12-25T05:02:48.134Z,5.05
2022-12-25T05:05:14.999Z,5.05
2022-12-25T05:07:41.714Z,5.07
2022-12-25T05:10:09.276Z,5.03
2022-12-25T05:12:35.938Z,5.05
2022-12-25T05:15:05.842Z,5.08
2022-12-25T05:17:32.656Z,5.07
2022-12-25T05:19:59.446Z,5.11
2022-12-25T05:22:26.350Z,5.10
2022-12-25T05:24:53.075Z,5.09
2022-12-25T05:27:19.819Z,5.07
2022-12-25T05:29:49.651Z,5.10
2022-12-25T05:32:16.474Z,5.09
2022-12-25T05:34:43.246Z,5.10
2022-12-25T05:37:09.945Z,5.11
2022-12-25T05:39:39.776Z,5.10
2022-12-25T05:42:15.229Z,5.10
2022-12-25T05:44:42.009Z,5.11
2022-12-25T05:47:08.778Z,5.12
2022-12-25T05:49:35.549Z,5.07
2022-12-25T05:52:02.174Z,5.10
2022-12-25T05:54:28.920Z,5.10
2022-12-25T05:56:55.552Z,5.07
2022-12-25T05:59:22.308Z,5.04
2022-12-25T06:01:49.132Z,4.97
2022-12-25T06:04:16.111Z,4.98
2022-12-25T06:06:42.832Z,4.99
2022-12-25T06:09:13.448Z,5.01
2022-12-25T06:11:41.367Z,5.01
2022-12-25T06:14:14.474Z,4.97
2022-12-25T06:16:44.375Z,4.93
2022-12-25T06:19:11.077Z,4.88
2022-12-25T06:21:39.736Z,4.88
2022-12-25T06:24:07.086Z,4.86
2022-12-25T06:26:37.015Z,4.82
2022-12-25T06:29:06.799Z,4.75
2022-12-25T06:31:34.000Z,4.77
2022-12-25T06:34:00.837Z,4.75
2022-12-25T06:36:29.454Z,4.76
2022-12-25T06:38:56.915Z,4.79
2022-12-25T06:41:27.903Z,4.76
2022-12-25T06:44:04.890Z,4.75
2022-12-25T06:46:33.482Z,4.76
2022-12-25T06:49:03.507Z,4.74
2022-12-25T06:51:34.535Z,4.75
2022-12-25T06:54:07.620Z,4.72
2022-12-25T06:56:35.175Z,4.72
2022-12-25T06:59:08.657Z,4.68
2022-12-25T07:01:50.086Z,4.71
2022-12-25T07:04:40.712Z,4.73
2022-12-25T07:28:47.107Z,4.67
2022-12-25T08:03:32.006Z,4.76
2022-12-25T08:27:29.139Z,5.05
2022-12-25T08:32:36.736Z,5.10
2022-12-25T08:35:03.568Z,5.15
2022-12-25T08:37:31.551Z,5.11
2022-12-25T08:39:58.260Z,5.13
2022-12-25T08:42:25.017Z,5.15
2022-12-25T08:44:51.723Z,5.21
2022-12-25T08:47:18.462Z,5.21
2022-12-25T08:49:45.177Z,5.23
2022-12-25T08:52:12.232Z,5.26
2022-12-25T08:54:39.010Z,5.21
2022-12-25T08:57:05.702Z,5.22
2022-12-25T08:59:39.782Z,5.22
2022-12-25T09:02:15.991Z,5.26
2022-12-25T09:04:51.207Z,5.29
2022-12-25T09:07:18.141Z,5.39
2022-12-25T09:09:54.416Z,5.32
2022-12-25T09:12:42.232Z,5.37
2022-12-25T09:15:11.031Z,5.40
2022-12-25T09:17:37.869Z,5.42
2022-12-25T09:20:08.086Z,5.43
2022-12-25T09:22:38.034Z,5.51
2022-12-25T09:25:05.488Z,5.57
2022-12-25T09:27:33.408Z,5.57
2022-12-25T09:30:00.027Z,5.53
2022-12-25T09:32:26.807Z,5.63
2022-12-25T09:34:53.407Z,5.63
2022-12-25T09:37:20.083Z,5.65
2022-12-25T09:39:49.538Z,5.67
2022-12-25T09:42:37.101Z,5.69
2022-12-25T09:45:19.872Z,5.74
2022-12-25T09:47:52.907Z,5.75
2022-12-25T09:50:47.373Z,5.81
2022-12-25T09:53:30.565Z,5.80
2022-12-25T09:56:18.258Z,5.84
2022-12-25T09:58:53.026Z,5.90
2022-12-25T10:02:00.441Z,5.95
2022-12-25T10:05:12.815Z,6.01
2022-12-25T10:08:31.262Z,6.07
2022-12-25T10:11:55.640Z,6.11
2022-12-25T10:15:04.517Z,6.12
2022-12-25T10:18:14.086Z,6.17
2022-12-25T10:20:56.076Z,6.18
2022-12-25T10:24:07.681Z,6.14
2022-12-25T10:26:35.495Z,6.12
2022-12-25T10:29:15.983Z,6.09
2022-12-25T10:31:50.742Z,6.11
2022-12-25T10:34:21.012Z,6.11
2022-12-25T10:36:49.958Z,6.07
2022-12-25T10:39:25.068Z,6.15
2022-12-25T10:42:43.838Z,6.15
2022-12-25T10:45:10.972Z,6.12
2022-12-25T10:47:44.471Z,6.16
2022-12-25T10:50:26.795Z,6.17
2022-12-25T10:53:05.392Z,6.20
2022-12-25T10:55:33.847Z,6.22
2022-12-25T10:58:02.095Z,6.26
2022-12-25T11:00:32.705Z,6.32
2022-12-25T11:03:00.819Z,6.36
2022-12-25T11:05:34.514Z,6.39
2022-12-25T11:08:03.564Z,6.38
2022-12-25T11:10:44.165Z,6.38
2022-12-25T11:13:30.879Z,6.36
2022-12-25T11:16:14.393Z,6.39
2022-12-25T11:18:55.245Z,6.32
2022-12-25T11:21:36.936Z,6.35
2022-12-25T11:24:22.416Z,6.37
2022-12-25T11:26:53.491Z,6.36
2022-12-25T11:29:51.309Z,6.34
2022-12-25T11:32:41.689Z,6.36
2022-12-25T11:35:19.116Z,6.37
2022-12-25T11:37:52.706Z,6.38
2022-12-25T11:40:42.846Z,6.37
2022-12-25T11:43:48.210Z,6.38
2022-12-25T11:46:31.712Z,6.38
2022-12-25T11:49:14.526Z,6.32
2022-12-25T11:51:49.159Z,6.37
2022-12-25T11:54:44.158Z,6.43
2022-12-25T11:57:12.738Z,6.46
2022-12-25T12:00:00.773Z,6.52
2022-12-25T12:03:13.526Z,6.53
2022-12-25T12:05:59.985Z,6.59
2022-12-25T12:08:28.369Z,6.61
2022-12-25T12:11:36.464Z,6.61
2022-12-25T12:14:33.891Z,6.58
2022-12-25T12:17:07.107Z,6.53
2022-12-25T12:28:05.675Z,6.37
2022-12-25T12:47:42.990Z,6.28
2022-12-25T12:50:41.192Z,6.32
2022-12-25T12:53:35.825Z,6.29
2022-12-25T12:56:12.795Z,6.31
2022-12-25T12:58:50.814Z,6.25
2022-12-25T13:02:04.247Z,6.30
2022-12-25T13:05:10.284Z,6.30
2022-12-25T13:11:08.548Z,6.26
2022-12-25T13:28:17.205Z,6.35
2022-12-25T13:30:50.502Z,6.35
2022-12-25T13:36:09.322Z,6.32
2022-12-25T13:42:07.323Z,6.33
2022-12-25T13:55:59.692Z,6.40
2022-12-25T14:51:50.280Z,5.83
2022-12-25T14:54:25.757Z,5.83
2022-12-25T15:02:19.627Z,5.78
2022-12-25T15:35:06.855Z,5.76
2022-12-25T15:40:19.605Z,5.68
2022-12-25T15:42:50.332Z,5.70
2022-12-25T16:09:49.440Z,5.67
2022-12-25T16:23:03.055Z,5.71
2022-12-25T16:25:29.733Z,5.70
2022-12-25T16:27:56.375Z,5.71
2022-12-25T16:30:23.090Z,5.70
2022-12-25T16:32:50.751Z,5.65
2022-12-25T16:35:17.898Z,5.68
2022-12-25T16:37:45.084Z,5.64
2022-12-25T16:40:12.032Z,5.65
2022-12-25T16:42:41.120Z,5.63
2022-12-25T16:45:08.551Z,5.66
2022-12-25T16:47:35.244Z,5.66
2022-12-25T16:50:03.762Z,5.64
2022-12-25T16:52:32.911Z,5.66
2022-12-25T16:54:59.695Z,5.70
2022-12-25T16:57:28.009Z,5.68
2022-12-25T16:59:55.154Z,5.70
2022-12-25T17:02:24.461Z,5.72
2022-12-25T17:04:56.689Z,5.75
2022-12-25T17:07:25.307Z,5.72
2022-12-25T17:09:57.829Z,5.73
2022-12-25T17:12:27.135Z,5.82
2022-12-25T17:14:53.994Z,5.83
2022-12-25T17:17:20.680Z,5.79
2022-12-25T17:19:47.626Z,5.70
2022-12-25T17:22:14.321Z,5.78
2022-12-25T17:24:41.522Z,5.74
2022-12-25T17:27:09.351Z,5.73
2022-12-25T17:29:39.999Z,5.71
2022-12-25T17:32:11.469Z,5.70
2022-12-25T17:34:38.721Z,5.72
2022-12-25T17:37:05.926Z,5.68
2022-12-25T17:39:32.981Z,5.66
2022-12-25T17:41:59.703Z,5.69
2022-12-25T17:44:27.292Z,5.65
2022-12-25T17:46:57.157Z,5.64
2022-12-25T17:49:24.047Z,5.61
2022-12-25T17:51:51.075Z,5.60
2022-12-25T17:54:17.849Z,5.58
2022-12-25T17:56:44.633Z,5.58
2022-12-25T17:59:18.265Z,5.61
2022-12-25T18:01:48.059Z,5.60
2022-12-25T18:04:16.070Z,5.57
2022-12-25T18:06:42.711Z,5.55
2022-12-25T18:09:11.511Z,5.56
2022-12-25T18:11:49.452Z,5.55
2022-12-25T18:14:17.697Z,5.54
2022-12-25T18:16:47.571Z,5.52
2022-12-25T18:19:17.644Z,5.51
2022-12-25T18:21:44.500Z,5.48
2022-12-25T18:24:11.552Z,5.44
2022-12-25T18:26:38.454Z,5.43
2022-12-25T18:29:08.306Z,5.41
2022-12-25T18:31:36.573Z,5.41
2022-12-25T18:34:03.541Z,5.40
2022-12-25T18:36:30.816Z,5.35
2022-12-25T18:39:01.376Z,5.37
2022-12-25T18:41:28.895Z,5.38
2022-12-25T18:43:59.249Z,5.38
2022-12-25T18:46:29.199Z,5.38
2022-12-25T18:48:57.639Z,5.37
2022-12-25T18:51:27.719Z,5.37
2022-12-25T18:54:05.006Z,5.37
2022-12-25T18:56:32.118Z,5.36
2022-12-25T18:59:01.949Z,5.36
2022-12-25T19:01:29.023Z,5.34
2022-12-25T19:04:04.458Z,5.33
2022-12-25T19:06:33.465Z,5.33
2022-12-25T19:09:00.360Z,5.32
2022-12-25T19:11:27.067Z,5.30
2022-12-25T19:13:53.832Z,5.29
2022-12-25T19:16:20.613Z,5.27
2022-12-25T19:18:47.936Z,5.22
2022-12-25T19:21:16.011Z,5.26
2022-12-25T19:23:42.824Z,5.27
2022-12-25T19:26:14.361Z,5.26
2022-12-25T19:28:41.484Z,5.27
2022-12-25T19:31:10.413Z,5.27
2022-12-25T19:33:43.014Z,5.25
2022-12-25T19:36:15.991Z,5.27
2022-12-25T19:38:44.301Z,5.28
2022-12-25T19:41:18.869Z,5.26
2022-12-25T19:43:49.309Z,5.25
2022-12-25T19:46:28.544Z,5.24
2022-12-25T19:48:56.953Z,5.25
2022-12-25T19:51:31.380Z,5.24
2022-12-25T19:53:58.230Z,5.25
2022-12-25T19:56:28.817Z,5.24
2022-12-25T19:58:59.804Z,5.21
2022-12-25T20:09:36.886Z,5.18
2022-12-25T20:12:09.075Z,5.19
2022-12-25T20:36:10.094Z,5.17
2022-12-25T20:38:37.124Z,5.16
2022-12-25T20:41:32.428Z,5.14
2022-12-25T20:57:37.781Z,5.10
2022-12-25T21:00:10.783Z,5.12
2022-12-25T21:02:37.956Z,5.10
2022-12-25T21:05:07.884Z,5.10
2022-12-25T21:18:36.161Z,5.14
2022-12-25T21:21:15.754Z,5.07
2022-12-25T21:23:43.178Z,5.07
2022-12-25T21:37:35.910Z,5.16
2022-12-25T21:45:24.569Z,5.14
2022-12-25T21:56:13.795Z,5.08
2022-12-25T21:58:40.483Z,5.09
2022-12-25T22:01:07.319Z,5.03
2022-12-25T22:03:40.076Z,5.05
2022-12-25T22:06:25.684Z,4.98
2022-12-25T22:08:53.724Z,4.99
2022-12-25T22:11:39.214Z,5.03
2022-12-25T22:14:51.875Z,5.06
2022-12-25T22:17:31.807Z,5.00
2022-12-25T22:19:59.339Z,5.07
2022-12-25T22:22:31.113Z,5.04
2022-12-25T22:25:02.636Z,5.04
2022-12-25T22:27:37.992Z,5.01
2022-12-25T22:30:10.016Z,5.02
2022-12-25T22:32:37.279Z,5.02
2022-12-25T22:35:05.032Z,5.01
2022-12-25T22:37:34.871Z,5.02
2022-12-25T22:40:06.475Z,4.99
2022-12-25T22:42:36.140Z,4.96
2022-12-25T22:45:04.691Z,4.95
2022-12-25T22:47:31.684Z,4.91
2022-12-25T22:49:58.485Z,4.93
2022-12-25T22:52:29.159Z,4.95
2022-12-25T22:54:56.152Z,4.92
2022-12-25T22:57:23.104Z,4.94
2022-12-25T22:59:53.183Z,4.92
2022-12-25T23:02:23.052Z,4.91
2022-12-25T23:04:50.179Z,4.95
2022-12-25T23:07:17.149Z,4.95
2022-12-25T23:09:46.863Z,4.95
2022-12-25T23:12:33.672Z,4.95
2022-12-25T23:15:03.541Z,4.91
2022-12-25T23:17:48.562Z,4.87
2022-12-25T23:20:34.062Z,4.89
2022-12-25T23:23:22.862Z,4.88
2022-12-25T23:26:07.745Z,4.92
2022-12-25T23:29:00.911Z,4.96
2022-12-25T23:31:37.061Z,4.97
2022-12-25T23:34:06.466Z,4.98
2022-12-25T23:36:39.668Z,4.99
2022-12-25T23:39:10.158Z,5.00
2022-12-25T23:41:43.612Z,5.01
2022-12-25T23:44:13.170Z,5.00
2022-12-25T23:46:53.209Z,5.03
2022-12-25T23:49:23.511Z,5.03
2022-12-25T23:51:55.097Z,5.02
2022-12-25T23:54:34.276Z,5.03
2022-12-25T23:57:03.270Z,5.04
2022-12-25T23:59:38.369Z,5.01
